Airfield :







YOU CAN JOIN US ON...

 
LOGIN :

Register | Disclaimer

   EN    FR    IT 

 









Legend :    VFR   Marginal VFR   IFR   Intensive IFR   Very Intensive IFR
Visi :
Ceiling :
>= 8 km
>= 3000ft
5 to 8 km
1000 to 3000 ft
1500m to 5 km
500 to 1000 ft
800 to 1500m
200 to 500 ft
< 800m
< 200 ft
Symbols :   Thunderstorms  Fog  Heavy snow  Heavy precipitations  Wind > 20 kt






- Airport Elevation : 141 ft
- IATA code : YQI


CYQI - Yarmouth

CURRENT METAR :
  • 040400Z CCA 22012G18KT 15SM BKN023 09/05 A3008 RMK SC7 SLP190

EXPIRED METARs :
  • 040300Z 22010G15KT 15SM FEW025 08/05 A3009 RMK SC1 SLP191
  • 040200Z 23009G15KT 15SM FEW025 07/03 A3010 RMK SC1 SLP195

TAF TAF CYQI
Valid from the 04 at 00:00 until the 04 at 12:00 UTC


032339Z 0400/0412 22010KT P6SM SCT020
TEMPO 0400/0402 BKN020
FM040200 22010KT P6SM BKN025
TEMPO 0402/0407 BKN020
FM040700 24010KT P6SM SCT025 BKN180
FM040900 22008KT P6SM SCT025 BKN120 RMK NXT FCST BY 040600Z
CZQM FIR / North America



MET'MAP, your aeronautical weather chart ! - Copyright ORBIFLY December 2007 - Disclaimer

ORBIFLY MET'MAP TEAM :

Programming & Development : Alexandra Zaïnal
Concept & original design : Baudouin d'Aumeries
Assistance for programming : Marc-Olivier Méhu
Technical & hardware support : Manuel Goepfert

Contact : metmap@orbifly.com




SOURCES & CREDITS :

   NOAA